Air Navigation Services of Czech Republic
Airport: LKPR Updated:  11.08.2020 00:00:27  UTC
 METAR LKPR 11.08. 00:00 ...
METAR LKPR 110000Z 23004KT CAVOK 18/17 Q1019 NOSIG RMK REG QNH 1015=
 TAF LKPR 10.08. 23:00 ...
TAF LKPR 102300Z 1100/1206 03006KT CAVOK      TEMPO 1100/1118 12010KT 5000 SHRA SCT040TCU      PROB30 TEMPO 1102/1106 3000 BR NSC      PROB40 TEMPO 1106/1115 2500 TSRA SCT033CB      BECMG 1121/1200 VRB02KT 5000 BR SCT017      TEMPO 1200/1206 2000 BR BKN010=